Time;durP1;ratioP1;P1;durP2;ratioP2;P2;SDS_P1;SDS_P2;PMS_P1;PMS_P2;Temp;Humidity;BMP_temperature;BMP_pressure;BME280_temperature;BME280_humidity;BME280_pressure;Samples;Min_cycle;Max_cycle;Signal;HPM_P1;HPM_P2
2022/06/03 00:00:21;;;;;;;3.22;2.20;;;11.40;99.90;;;;;;5030132;28;20133;-65
2022/06/03 00:03:15;;;;;;;3.80;1.92;;;11.40;99.90;;;;;;5013309;28;20115;-66
2022/06/03 00:06:00;;;;;;;4.60;2.33;;;11.30;99.90;;;;;;5013388;28;20404;-65
2022/06/03 00:09:00;;;;;;;3.15;2.13;;;11.30;99.90;;;;;;5013493;28;20037;-66
2022/06/03 00:11:40;;;;;;;2.33;1.70;;;11.30;99.90;;;;;;5013763;28;20393;-66
2022/06/03 00:14:50;;;;;;;4.05;2.10;;;11.20;99.90;;;;;;5049929;28;20045;-65
2022/06/03 00:17:41;;;;;;;4.15;2.30;;;11.20;99.90;;;;;;5051872;28;20090;-66
2022/06/03 00:20:28;;;;;;;3.50;2.28;;;11.20;99.90;;;;;;5050483;28;20036;-65
2022/06/03 00:23:04;;;;;;;3.90;2.20;;;11.10;99.90;;;;;;5051935;28;20059;-66
2022/06/03 00:25:59;;;;;;;6.13;2.22;;;11.10;99.90;;;;;;5052031;28;20040;-65
2022/06/03 00:28:33;;;;;;;3.60;2.30;;;11.10;99.90;;;;;;5051841;28;20112;-65
2022/06/03 00:31:28;;;;;;;5.05;2.35;;;11.10;99.90;;;;;;5051565;28;20040;-65
2022/06/03 00:34:14;;;;;;;2.92;2.30;;;11.10;99.90;;;;;;5050803;28;20060;-64
2022/06/03 00:37:00;;;;;;;4.72;2.70;;;11.10;99.90;;;;;;5051972;28;20044;-65
2022/06/03 00:39:36;;;;;;;4.07;2.40;;;11.10;99.90;;;;;;5051615;28;20041;-65
2022/06/03 00:42:55;;;;;;;4.20;2.33;;;11.00;99.90;;;;;;5050123;28;20430;-65
2022/06/03 00:45:49;;;;;;;4.70;2.83;;;11.00;99.90;;;;;;5051406;28;20035;-65
2022/06/03 00:48:34;;;;;;;5.70;2.70;;;11.00;99.90;;;;;;5051200;28;20121;-66
2022/06/03 00:51:37;;;;;;;4.05;2.38;;;10.90;99.90;;;;;;5047329;28;20048;-65
2022/06/03 00:54:45;;;;;;;4.15;2.40;;;10.90;99.90;;;;;;5049650;28;20400;-65
2022/06/03 00:57:45;;;;;;;4.90;2.58;;;10.90;99.90;;;;;;5043578;28;20353;-66
2022/06/03 01:00:16;;;;;;;3.92;2.58;;;10.80;99.90;;;;;;5032507;28;20091;-65
2022/06/03 01:03:11;;;;;;;5.97;2.83;;;10.80;99.90;;;;;;5050894;28;20033;-65
2022/06/03 01:06:16;;;;;;;4.57;2.70;;;10.80;99.90;;;;;;5051007;28;20062;-66
2022/06/03 01:09:13;;;;;;;3.70;2.47;;;10.70;99.90;;;;;;5050491;28;20043;-65
2022/06/03 01:11:57;;;;;;;3.38;2.78;;;10.70;99.90;;;;;;5049306;28;20120;-65
2022/06/03 01:14:31;;;;;;;4.55;2.65;;;10.70;99.90;;;;;;5050479;28;20044;-65
2022/06/03 01:17:33;;;;;;;4.55;2.90;;;10.60;99.90;;;;;;5050723;28;20060;-65
2022/06/03 01:20:02;;;;;;;6.00;2.95;;;10.60;99.90;;;;;;5050561;28;20171;-66
2022/06/03 01:22:57;;;;;;;3.60;2.80;;;10.60;99.90;;;;;;5047402;28;20049;-66
2022/06/03 01:25:42;;;;;;;4.07;2.70;;;10.60;99.90;;;;;;5049646;28;20056;-65
2022/06/03 01:28:36;;;;;;;4.45;2.70;;;10.60;99.90;;;;;;5050929;28;20033;-65
2022/06/03 01:31:43;;;;;;;5.03;2.75;;;10.50;99.90;;;;;;5049510;28;20040;-65
2022/06/03 01:34:20;;;;;;;4.03;2.95;;;10.50;99.90;;;;;;5028322;28;20038;-65
2022/06/03 01:37:12;;;;;;;5.25;2.70;;;10.50;99.90;;;;;;5011780;28;20519;-65
2022/06/03 01:39:59;;;;;;;4.55;3.00;;;10.50;99.90;;;;;;5011661;28;20045;-65
2022/06/03 01:43:05;;;;;;;5.10;3.20;;;10.50;99.90;;;;;;5028524;28;20042;-66
2022/06/03 01:45:40;;;;;;;6.75;2.95;;;10.50;99.90;;;;;;4992376;28;20053;-66
2022/06/03 01:48:38;;;;;;;5.90;2.80;;;10.50;99.90;;;;;;5008344;28;20081;-66
2022/06/03 01:51:22;;;;;;;4.47;2.92;;;10.40;99.90;;;;;;4991863;28;20073;-65
2022/06/03 01:54:09;;;;;;;5.88;3.25;;;10.40;99.90;;;;;;5008401;28;20042;-65
2022/06/03 01:56:34;;;;;;;5.25;3.30;;;10.40;99.90;;;;;;4992075;28;20555;-65
2022/06/03 01:59:36;;;;;;;4.97;2.97;;;10.40;99.90;;;;;;5008223;28;20152;-66
2022/06/03 02:02:29;;;;;;;4.50;3.00;;;10.40;99.90;;;;;;4915000;29;20067;-66
2022/06/03 02:05:16;;;;;;;3.95;3.20;;;10.40;99.90;;;;;;4914779;29;20047;-65
2022/06/03 02:08:00;;;;;;;4.72;2.88;;;10.40;99.90;;;;;;4931071;29;20079;-65
2022/06/03 02:10:44;;;;;;;4.35;3.20;;;10.40;99.90;;;;;;4915078;29;20066;-65
2022/06/03 02:13:10;;;;;;;5.88;3.10;;;10.40;99.90;;;;;;4930784;29;20052;-66
2022/06/03 02:15:54;;;;;;;5.93;3.30;;;10.30;99.90;;;;;;4938729;28;20430;-66
2022/06/03 02:18:52;;;;;;;5.78;3.55;;;10.30;99.90;;;;;;4969243;28;20118;-66
2022/06/03 02:21:45;;;;;;;4.18;3.20;;;10.30;99.90;;;;;;4969298;28;20502;-66
2022/06/03 02:24:48;;;;;;;3.40;3.05;;;10.20;99.90;;;;;;4953083;28;20050;-64
2022/06/03 02:27:20;;;;;;;;;;;10.20;99.90;;;;;;4969678;28;20125;-65
2022/06/03 02:33:04;;;;;;;6.47;3.45;;;10.20;99.90;;;;;;4953035;28;20125;-65
2022/06/03 02:36:01;;;;;;;6.40;3.90;;;10.20;99.90;;;;;;4969190;28;20143;-65
2022/06/03 02:38:46;;;;;;;6.85;3.63;;;10.20;99.90;;;;;;4964849;28;20085;-65
2022/06/03 02:41:18;;;;;;;5.55;3.72;;;10.10;99.90;;;;;;5006446;28;20045;-65
2022/06/03 02:44:08;;;;;;;5.43;3.70;;;10.10;99.90;;;;;;4987355;28;20077;-64
2022/06/03 02:46:45;;;;;;;8.88;4.47;;;10.00;99.90;;;;;;5007757;28;20053;-65
2022/06/03 02:49:17;;;;;;;9.10;4.40;;;10.10;99.90;;;;;;4990879;28;20046;-65
2022/06/03 02:51:45;;;;;;;5.03;3.55;;;10.10;99.90;;;;;;5007767;28;20145;-65
2022/06/03 02:54:41;;;;;;;7.25;4.20;;;10.10;99.90;;;;;;5007389;28;20081;-64
2022/06/03 02:57:30;;;;;;;6.03;4.03;;;10.00;99.90;;;;;;4993691;28;20049;-65
2022/06/03 03:00:19;;;;;;;8.05;4.57;;;10.00;99.90;;;;;;5011134;28;20056;-65
2022/06/03 03:03:00;;;;;;;5.13;3.67;;;10.00;99.90;;;;;;4994901;28;20046;-64
2022/06/03 03:05:46;;;;;;;8.80;4.32;;;10.00;99.90;;;;;;4978097;28;20081;-66
2022/06/03 03:08:27;;;;;;;7.93;4.07;;;10.00;99.90;;;;;;4981717;28;20400;-64
2022/06/03 03:11:17;;;;;;;6.10;4.40;;;9.90;99.90;;;;;;5051666;28;20041;-66
2022/06/03 03:13:55;;;;;;;6.47;4.10;;;9.90;99.90;;;;;;5052453;28;20045;-65
2022/06/03 03:16:44;;;;;;;6.05;4.55;;;9.90;99.90;;;;;;5052866;28;20124;-66
2022/06/03 03:19:31;;;;;;;6.53;4.65;;;9.90;99.90;;;;;;5053185;28;20065;-65
2022/06/03 03:22:31;;;;;;;6.35;4.63;;;9.90;99.90;;;;;;5051646;28;20044;-64
2022/06/03 03:25:29;;;;;;;7.20;4.80;;;9.90;99.90;;;;;;5051671;28;20041;-66
2022/06/03 03:28:19;;;;;;;5.53;4.72;;;9.90;99.90;;;;;;5051745;28;20124;-64
2022/06/03 03:31:29;;;;;;;8.73;5.10;;;9.90;99.90;;;;;;5053197;28;20520;-65
2022/06/03 03:34:12;;;;;;;7.38;4.75;;;9.90;99.90;;;;;;5030710;28;20527;-65
2022/06/03 03:37:05;;;;;;;7.05;5.07;;;9.90;99.90;;;;;;5013958;28;20132;-65
2022/06/03 03:39:48;;;;;;;7.18;5.10;;;9.90;99.90;;;;;;4997252;28;20132;-65
2022/06/03 03:42:51;;;;;;;7.78;4.80;;;10.00;99.90;;;;;;5013781;28;20041;-65
2022/06/03 03:45:37;;;;;;;7.00;4.80;;;9.90;99.90;;;;;;5013718;28;20037;-65
2022/06/03 03:48:21;;;;;;;7.97;4.95;;;10.00;99.90;;;;;;5030446;28;20096;-65
2022/06/03 03:51:10;;;;;;;5.30;4.50;;;10.10;99.90;;;;;;5030288;28;20049;-65
2022/06/03 03:54:12;;;;;;;10.02;5.10;;;10.10;99.90;;;;;;5030184;28;20041;-65
2022/06/03 03:56:59;;;;;;;8.33;4.57;;;10.20;99.90;;;;;;5013460;28;20099;-65
2022/06/03 03:59:40;;;;;;;7.82;5.28;;;10.20;99.90;;;;;;5013314;28;20049;-65
2022/06/03 04:02:28;;;;;;;9.90;5.18;;;10.30;99.90;;;;;;5030152;28;20046;-65
2022/06/03 04:05:03;;;;;;;7.97;5.43;;;10.30;99.90;;;;;;5013529;28;20033;-65
2022/06/03 04:08:09;;;;;;;9.18;5.47;;;10.40;99.90;;;;;;5029730;28;20041;-65
2022/06/03 04:11:01;;;;;;;6.18;4.68;;;10.40;99.90;;;;;;5014022;28;20160;-65
2022/06/03 04:13:45;;;;;;;9.10;5.40;;;10.40;99.90;;;;;;5013116;28;20049;-64
2022/06/03 04:16:41;;;;;;;11.30;5.55;;;10.50;99.90;;;;;;5029761;28;20045;-65
2022/06/03 04:19:20;;;;;;;9.77;5.60;;;10.50;99.90;;;;;;5029825;28;20403;-65
2022/06/03 04:22:04;;;;;;;8.10;5.43;;;10.60;99.90;;;;;;5013334;28;20061;-65
2022/06/03 04:24:48;;;;;;;6.10;4.80;;;10.60;99.90;;;;;;5029321;28;20072;-64
2022/06/03 04:27:50;;;;;;;7.13;4.97;;;10.70;99.90;;;;;;5013280;28;20128;-65
2022/06/03 04:30:52;;;;;;;6.40;5.05;;;10.70;99.90;;;;;;5029589;28;20488;-65
2022/06/03 04:33:45;;;;;;;8.45;5.72;;;10.80;99.90;;;;;;4992542;28;20045;-65
2022/06/03 04:36:39;;;;;;;7.57;5.40;;;10.90;99.90;;;;;;5012348;28;20053;-65
2022/06/03 04:39:10;;;;;;;7.97;5.00;;;11.00;99.90;;;;;;5028932;28;20037;-65
2022/06/03 04:42:06;;;;;;;6.88;5.07;;;11.10;99.90;;;;;;5012235;28;20053;-65
2022/06/03 04:45:09;;;;;;;7.03;4.60;;;11.10;99.90;;;;;;4996006;28;20373;-65
2022/06/03 04:48:11;;;;;;;8.30;5.78;;;11.20;99.90;;;;;;5041288;28;20487;-65
2022/06/03 04:51:03;;;;;;;8.35;5.45;;;11.30;99.90;;;;;;5050513;28;20464;-65
2022/06/03 04:53:57;;;;;;;8.63;5.25;;;11.40;99.90;;;;;;5050694;28;20060;-66
2022/06/03 04:56:44;;;;;;;6.43;4.93;;;11.50;99.90;;;;;;5049341;28;20412;-65
2022/06/03 04:59:53;;;;;;;8.60;5.05;;;11.60;99.90;;;;;;5051272;28;20049;-65
2022/06/03 05:03:09;;;;;;;9.57;5.32;;;11.60;99.90;;;;;;5050591;28;20039;-65
2022/06/03 05:05:53;;;;;;;8.15;5.45;;;11.80;99.90;;;;;;5028265;28;20212;-66
2022/06/03 05:08:27;;;;;;;11.57;5.22;;;11.90;99.90;;;;;;5028699;28;20132;-65
2022/06/03 05:11:30;;;;;;;6.55;5.22;;;12.00;99.90;;;;;;5028522;28;20075;-65
2022/06/03 05:14:26;;;;;;;6.60;5.18;;;12.00;99.90;;;;;;5012262;28;20515;-66
2022/06/03 05:17:31;;;;;;;8.80;4.90;;;12.10;99.90;;;;;;5028474;28;20111;-65
2022/06/03 05:20:13;;;;;;;7.47;4.97;;;12.20;99.90;;;;;;5011676;28;20077;-65
2022/06/03 05:22:51;;;;;;;8.60;5.53;;;12.30;99.90;;;;;;5028415;28;20056;-66
2022/06/03 05:25:48;;;;;;;8.05;5.05;;;12.50;99.90;;;;;;5012229;28;20116;-66
2022/06/03 05:28:35;;;;;;;6.57;4.90;;;12.60;99.90;;;;;;5028768;28;20041;-66
2022/06/03 05:31:42;;;;;;;6.75;4.70;;;12.70;99.90;;;;;;5011865;28;20045;-66
2022/06/03 05:34:28;;;;;;;7.45;4.82;;;12.80;99.90;;;;;;4992326;28;20054;-65
2022/06/03 05:36:53;;;;;;;5.85;4.47;;;13.00;99.90;;;;;;4991934;28;20057;-66
2022/06/03 05:39:30;;;;;;;5.32;4.30;;;13.10;99.90;;;;;;4992650;28;20049;-65
2022/06/03 05:44:52;;;;;;;6.75;4.70;;;13.30;99.90;;;;;;5028187;28;20049;-65
2022/06/03 05:47:32;;;;;;;5.82;4.40;;;13.50;99.90;;;;;;5028538;28;20539;-65
2022/06/03 05:50:13;;;;;;;7.07;4.32;;;13.60;99.90;;;;;;4995851;28;20056;-66
2022/06/03 05:53:11;;;;;;;8.57;4.20;;;13.70;99.90;;;;;;5011755;28;20078;-65
2022/06/03 05:56:00;;;;;;;8.00;4.70;;;13.80;99.90;;;;;;5028300;28;20041;-66
2022/06/03 05:58:31;;;;;;;9.10;3.85;;;13.90;99.90;;;;;;5011605;28;20049;-66
2022/06/03 06:01:04;;;;;;;5.28;3.72;;;14.10;99.90;;;;;;5027970;28;20041;-65
2022/06/03 06:03:42;;;;;;;7.18;4.25;;;14.20;99.90;;;;;;5011920;28;20084;-65
2022/06/03 06:06:07;;;;;;;4.47;3.85;;;14.30;99.90;;;;;;5028020;28;20045;-65
2022/06/03 06:08:51;;;;;;;5.70;3.75;;;14.40;99.90;;;;;;5028107;28;20049;-66
2022/06/03 06:11:50;;;;;;;5.25;3.60;;;14.50;99.90;;;;;;5039793;28;20048;-65
2022/06/03 06:14:18;;;;;;;5.30;3.63;;;14.60;99.90;;;;;;5049187;28;20488;-66
2022/06/03 06:16:45;;;;;;;5.03;3.42;;;14.70;99.90;;;;;;5050223;28;20041;-66
2022/06/03 06:19:36;;;;;;;3.80;3.22;;;14.80;99.90;;;;;;5050118;28;20434;-66
2022/06/03 06:22:21;;;;;;;6.25;3.60;;;14.90;99.90;;;;;;5050345;28;20052;-65
2022/06/03 06:24:55;;;;;;;5.20;3.72;;;15.10;99.90;;;;;;5045871;28;20515;-65
2022/06/03 06:27:52;;;;;;;6.05;3.40;;;15.20;99.90;;;;;;5049590;28;20395;-65
2022/06/03 06:30:33;;;;;;;6.18;3.38;;;15.30;99.90;;;;;;5048747;28;20124;-65
2022/06/03 06:33:17;;;;;;;5.28;3.38;;;15.50;99.90;;;;;;5035683;28;20040;-66
2022/06/03 06:36:01;;;;;;;5.82;3.28;;;15.60;99.90;;;;;;5052663;28;20476;-65
2022/06/03 06:39:08;;;;;;;5.28;3.17;;;15.70;99.90;;;;;;5052289;28;20072;-66
2022/06/03 06:41:54;;;;;;;3.67;3.00;;;15.80;99.90;;;;;;5014638;28;20052;-66
2022/06/03 06:44:51;;;;;;;6.10;2.80;;;15.90;99.90;;;;;;5031288;28;20108;-66
2022/06/03 06:47:29;;;;;;;5.18;3.10;;;16.10;99.90;;;;;;5031166;28;20041;-66
2022/06/03 06:50:32;;;;;;;4.53;2.95;;;16.20;99.90;;;;;;5031002;28;20208;-65
2022/06/03 06:53:03;;;;;;;4.93;2.95;;;16.30;99.90;;;;;;4994781;28;20046;-66
2022/06/03 06:55:51;;;;;;;4.50;2.80;;;16.40;99.90;;;;;;4994476;28;20061;-65
2022/06/03 06:58:45;;;;;;;5.72;3.38;;;16.50;99.90;;;;;;4994514;28;20066;-67
2022/06/03 07:01:18;;;;;;;3.38;2.85;;;16.60;99.90;;;;;;5011363;28;20052;-65
2022/06/03 07:04:03;;;;;;;4.60;2.80;;;16.70;99.90;;;;;;4995187;28;20386;-66
2022/06/03 07:06:40;;;;;;;4.88;2.88;;;16.80;99.90;;;;;;4995070;28;20049;-65
2022/06/03 07:09:11;;;;;;;4.50;2.80;;;16.90;99.90;;;;;;5010942;28;20295;-66
2022/06/03 07:12:09;;;;;;;6.20;2.80;;;16.90;99.90;;;;;;5011351;28;20045;-66
2022/06/03 07:14:44;;;;;;;5.88;2.70;;;17.10;99.90;;;;;;4917831;29;20056;-66
2022/06/03 07:20:33;;;;;;;4.95;2.97;;;17.20;99.90;;;;;;4933426;29;20039;-65
2022/06/03 07:23:26;;;;;;;5.07;3.10;;;17.30;99.90;;;;;;4933740;29;20056;-67
2022/06/03 07:26:14;;;;;;;4.75;3.25;;;17.50;99.90;;;;;;4933486;29;20110;-65
2022/06/03 07:28:48;;;;;;;5.45;3.08;;;17.60;99.90;;;;;;4927611;28;20137;-66
2022/06/03 07:31:17;;;;;;;5.88;3.25;;;17.70;99.90;;;;;;4955462;28;20134;-67
2022/06/03 07:34:14;;;;;;;5.28;3.10;;;17.80;99.90;;;;;;4971992;28;20034;-65
2022/06/03 07:36:49;;;;;;;6.30;2.88;;;18.00;99.90;;;;;;4971605;28;20141;-66
2022/06/03 07:39:34;;;;;;;5.63;2.88;;;18.00;99.90;;;;;;4971844;28;20529;-66
2022/06/03 07:42:07;;;;;;;5.00;3.45;;;18.20;99.90;;;;;;4955345;28;20051;-66
2022/06/03 07:45:02;;;;;;;5.88;3.00;;;18.30;99.90;;;;;;4955776;28;20620;-66
2022/06/03 07:47:28;;;;;;;5.63;3.30;;;18.40;99.90;;;;;;4955679;28;20047;-66
2022/06/03 07:49:57;;;;;;;5.38;2.92;;;18.50;99.90;;;;;;4960010;28;20117;-67
2022/06/03 07:52:27;;;;;;;5.80;3.00;;;18.60;99.90;;;;;;5051192;28;20037;-66
2022/06/03 07:54:57;;;;;;;5.72;3.33;;;18.70;99.90;;;;;;5052454;28;20120;-65
2022/06/03 07:57:27;;;;;;;4.70;2.85;;;18.80;99.90;;;;;;5050739;28;20045;-66
2022/06/03 07:59:58;;;;;;;3.92;2.88;;;18.80;99.90;;;;;;5052536;28;20466;-65
2022/06/03 08:02:23;;;;;;;4.43;2.85;;;18.90;99.90;;;;;;5052337;28;20174;-66
2022/06/03 08:05:09;;;;;;;4.15;3.20;;;19.00;99.90;;;;;;5051061;28;20499;-66
2022/06/03 08:13:12;;;;;;;6.35;3.05;;;19.40;99.90;;;;;;5051101;28;20127;-66
2022/06/03 08:15:51;;;;;;;5.32;3.00;;;19.50;99.90;;;;;;5045108;28;20163;-66
2022/06/03 08:18:18;;;;;;;4.43;3.22;;;19.70;99.90;;;;;;5050125;28;20037;-66
2022/06/03 08:21:05;;;;;;;5.50;3.40;;;19.70;99.90;;;;;;5050268;28;20037;-66
2022/06/03 08:23:33;;;;;;;4.78;3.45;;;19.80;99.90;;;;;;5051484;28;20448;-66
2022/06/03 08:26:05;;;;;;;5.00;3.40;;;20.00;99.90;;;;;;5050439;28;20143;-66
2022/06/03 08:28:34;;;;;;;3.25;2.70;;;20.00;99.90;;;;;;5049998;28;20045;-66
2022/06/03 08:31:03;;;;;;;4.88;3.25;;;20.00;99.90;;;;;;5050498;28;20033;-66
2022/06/03 08:33:47;;;;;;;5.40;3.30;;;20.10;99.90;;;;;;5051247;28;20033;-66
2022/06/03 08:36:35;;;;;;;4.40;3.10;;;20.30;99.90;;;;;;5050154;28;20048;-67
2022/06/03 08:39:18;;;;;;;3.92;2.72;;;20.40;99.90;;;;;;5051644;28;20047;-66
2022/06/03 08:42:06;;;;;;;4.85;3.08;;;20.60;99.90;;;;;;5051138;28;20037;-66
2022/06/03 08:45:02;;;;;;;7.35;3.40;;;20.60;99.90;;;;;;5050952;28;20036;-66
2022/06/03 08:47:38;;;;;;;5.68;2.90;;;20.80;99.90;;;;;;5050019;28;20115;-67
2022/06/03 08:50:36;;;;;;;5.25;3.38;;;21.00;99.90;;;;;;5051485;28;20040;-67
2022/06/03 08:53:28;;;;;;;5.60;2.75;;;21.00;99.90;;;;;;5050811;28;20562;-66
2022/06/03 08:55:56;;;;;;;3.17;2.05;;;21.20;99.90;;;;;;5049908;28;20044;-67
2022/06/03 08:58:44;;;;;;;4.05;2.50;;;21.40;99.90;;;;;;5051118;28;20569;-67
2022/06/03 09:01:25;;;;;;;4.68;3.15;;;21.60;99.90;;;;;;5050226;28;20052;-67
2022/06/03 09:04:01;;;;;;;5.18;3.28;;;21.70;99.60;;;;;;5050063;28;20514;-66
2022/06/03 09:06:34;;;;;;;4.13;3.20;;;21.70;99.60;;;;;;5033156;28;20049;-66
2022/06/03 09:09:06;;;;;;;5.95;3.60;;;21.80;99.30;;;;;;5050080;28;20517;-66
2022/06/03 09:11:45;;;;;;;4.25;3.00;;;21.80;98.90;;;;;;5049962;28;20056;-66
2022/06/03 09:14:18;;;;;;;6.80;3.75;;;21.80;98.20;;;;;;5049929;28;20387;-66
2022/06/03 09:16:47;;;;;;;3.40;2.40;;;21.60;98.50;;;;;;5051068;28;20045;-67
2022/06/03 09:19:33;;;;;;;5.30;3.15;;;21.80;98.40;;;;;;5051182;28;20040;-67
2022/06/03 09:22:07;;;;;;;4.43;3.22;;;21.90;98.50;;;;;;5049911;28;20426;-66
2022/06/03 09:24:37;;;;;;;3.67;2.90;;;22.00;98.30;;;;;;5050823;28;20045;-66
2022/06/03 09:27:04;;;;;;;4.72;2.70;;;22.20;98.70;;;;;;5050933;28;20041;-66
2022/06/03 09:29:30;;;;;;;6.53;3.20;;;22.40;98.70;;;;;;5051092;28;20102;-66
2022/06/03 09:32:01;;;;;;;4.55;2.80;;;22.50;97.60;;;;;;5049727;28;20496;-66
2022/06/03 09:34:43;;;;;;;5.30;3.20;;;22.50;97.70;;;;;;5050838;28;20076;-67
2022/06/03 09:37:24;;;;;;;5.53;2.78;;;22.70;97.50;;;;;;5050547;28;20407;-67
2022/06/03 09:39:51;;;;;;;4.72;2.78;;;22.70;97.70;;;;;;5049166;28;20098;-66
2022/06/03 09:42:21;;;;;;;5.10;2.40;;;22.80;96.90;;;;;;5049561;28;20037;-67
2022/06/03 09:44:49;;;;;;;4.55;2.50;;;22.90;97.10;;;;;;5049017;28;20037;-66
2022/06/03 09:47:18;;;;;;;3.65;2.10;;;23.00;96.80;;;;;;5050652;28;20127;-68
2022/06/03 09:49:51;;;;;;;4.30;2.58;;;23.00;95.20;;;;;;5050329;28;20510;-67
2022/06/03 09:52:21;;;;;;;3.78;2.10;;;23.00;94.80;;;;;;5049223;28;20162;-67
2022/06/03 09:54:47;;;;;;;3.75;1.77;;;23.00;95.70;;;;;;5050255;28;20040;-67
2022/06/03 09:57:27;;;;;;;5.20;2.42;;;23.10;95.80;;;;;;5050339;28;20048;-67
2022/06/03 10:00:03;;;;;;;2.67;1.80;;;23.30;94.80;;;;;;5032285;28;20037;-66
2022/06/03 10:02:30;;;;;;;6.53;2.25;;;23.30;94.30;;;;;;5050627;28;20083;-66
2022/06/03 10:04:56;;;;;;;6.88;2.20;;;23.40;95.00;;;;;;5050193;28;20041;-67
2022/06/03 10:07:26;;;;;;;3.63;2.47;;;23.50;94.10;;;;;;5050886;28;20036;-66
2022/06/03 10:12:55;;;;;;;9.30;2.17;;;23.40;93.40;;;;;;5053921;28;20049;-67
2022/06/03 10:15:38;;;;;;;5.47;2.42;;;23.60;94.10;;;;;;5054305;28;20041;-66
2022/06/03 10:18:41;;;;;;;4.13;2.20;;;23.80;94.00;;;;;;5053860;28;20102;-66
2022/06/03 10:21:06;;;;;;;3.70;1.90;;;23.90;93.50;;;;;;5054135;28;20069;-67
2022/06/03 10:23:35;;;;;;;3.55;2.22;;;23.90;92.80;;;;;;5053737;28;20087;-67
2022/06/03 10:26:01;;;;;;;2.92;2.08;;;23.90;92.60;;;;;;5052597;28;20076;-68
2022/06/03 10:28:40;;;;;;;2.78;2.35;;;23.90;92.80;;;;;;5053712;28;20041;-67
2022/06/03 10:31:13;;;;;;;2.97;1.67;;;23.90;91.80;;;;;;5053852;28;20920;-67
2022/06/03 10:33:38;;;;;;;2.88;1.73;;;23.90;92.60;;;;;;5053838;28;20029;-67
2022/06/03 10:36:05;;;;;;;3.55;1.65;;;24.00;92.40;;;;;;5053501;28;20043;-66
2022/06/03 10:38:34;;;;;;;3.10;2.17;;;24.10;92.40;;;;;;5052175;28;20076;-67
2022/06/03 10:41:09;;;;;;;3.15;2.45;;;24.10;91.60;;;;;;5053685;28;20078;-67
2022/06/03 10:43:36;;;;;;;2.25;2.05;;;24.10;91.00;;;;;;5053962;28;20056;-66
2022/06/03 10:46:10;;;;;;;2.78;1.65;;;24.20;92.20;;;;;;5053636;28;20484;-67
2022/06/03 10:48:35;;;;;;;2.13;1.70;;;24.30;92.00;;;;;;5053971;28;20080;-67
2022/06/03 11:01:06;;;;;;;2.72;1.60;;;24.30;91.80;;;;;;5053676;28;20096;-68
2022/06/03 11:02:32;;;;;;;3.15;1.52;;;24.40;89.60;;;;;;5053502;28;20045;-67
2022/06/03 11:05:26;;;;;;;3.80;2.10;;;24.40;90.10;;;;;;5035629;28;20047;-67
2022/06/03 11:08:05;;;;;;;3.25;2.00;;;24.50;90.40;;;;;;5052185;28;20106;-67
2022/06/03 11:10:47;;;;;;;6.05;2.28;;;24.50;90.20;;;;;;5053382;28;20094;-67
2022/06/03 11:13:24;;;;;;;2.70;1.70;;;24.50;90.50;;;;;;5052147;28;20511;-67
2022/06/03 11:15:49;;;;;;;3.70;2.13;;;24.50;89.50;;;;;;5051799;28;20047;-67
2022/06/03 11:18:32;;;;;;;1.77;1.45;;;24.50;89.80;;;;;;5052575;28;20040;-67
2022/06/03 11:21:14;;;;;;;;;;;24.50;89.30;;;;;;5052491;28;20572;-67
2022/06/03 11:23:40;;;;;;;2.50;1.50;;;24.50;89.70;;;;;;5052092;28;19917;-67
2022/06/03 11:26:06;;;;;;;2.75;1.60;;;24.60;89.80;;;;;;5053036;28;20043;-67
2022/06/03 11:28:38;;;;;;;2.45;1.73;;;24.60;89.00;;;;;;5053117;28;20045;-66
2022/06/03 11:31:09;;;;;;;2.63;1.48;;;24.60;89.10;;;;;;5053038;28;20380;-67
2022/06/03 11:33:48;;;;;;;2.85;1.50;;;24.70;89.40;;;;;;5052921;28;20045;-66
2022/06/03 11:36:29;;;;;;;1.77;1.60;;;24.70;88.20;;;;;;5052752;28;20041;-67
2022/06/03 11:39:07;;;;;;;2.95;1.45;;;24.70;88.00;;;;;;5052981;28;20503;-67
2022/06/03 11:41:47;;;;;;;3.88;1.88;;;24.60;88.80;;;;;;5052861;28;20138;-66
2022/06/03 11:44:33;;;;;;;3.13;1.60;;;24.60;88.60;;;;;;5052341;28;20400;-67
2022/06/03 11:47:25;;;;;;;1.92;1.70;;;24.50;88.00;;;;;;5051698;28;20507;-66
2022/06/03 11:49:51;;;;;;;3.22;1.60;;;24.40;87.90;;;;;;5052717;28;20049;-66
2022/06/03 11:52:17;;;;;;;4.72;1.83;;;24.20;87.30;;;;;;5052333;28;20076;-68
2022/06/03 11:54:43;;;;;;;2.90;1.40;;;24.20;87.50;;;;;;5052483;28;20068;-66
2022/06/03 11:57:09;;;;;;;2.13;1.90;;;24.00;88.20;;;;;;5048794;28;20112;-67
2022/06/03 11:59:47;;;;;;;2.10;1.70;;;23.90;86.90;;;;;;5050486;28;20124;-67
2022/06/03 12:02:29;;;;;;;3.63;1.73;;;23.80;86.50;;;;;;5051977;28;20076;-66
2022/06/03 12:05:21;;;;;;;2.80;1.80;;;23.70;85.60;;;;;;5047244;28;20037;-67
2022/06/03 12:08:17;;;;;;;1.98;1.50;;;23.50;86.40;;;;;;4996764;28;20811;-67
2022/06/03 12:11:08;;;;;;;2.00;1.50;;;23.50;86.70;;;;;;5028452;28;20180;-67
2022/06/03 12:13:34;;;;;;;3.92;1.92;;;23.40;86.80;;;;;;5029313;28;20057;-67
2022/06/03 12:16:10;;;;;;;2.42;1.48;;;23.30;86.70;;;;;;5029381;28;20044;-67
2022/06/03 12:18:37;;;;;;;4.40;1.92;;;23.20;88.00;;;;;;5011229;28;20042;-67
2022/06/03 12:21:04;;;;;;;2.00;1.70;;;23.30;88.30;;;;;;5029551;28;20108;-67
2022/06/03 12:23:38;;;;;;;2.70;1.73;;;23.30;86.90;;;;;;5029265;28;20104;-66
2022/06/03 12:26:19;;;;;;;1.67;1.10;;;23.30;87.10;;;;;;5029269;28;20041;-67
2022/06/03 12:28:48;;;;;;;3.80;1.70;;;23.20;87.60;;;;;;5011188;28;20484;-67
2022/06/03 12:31:22;;;;;;;1.90;1.70;;;23.20;88.00;;;;;;5029815;28;20106;-67
2022/06/03 12:34:07;;;;;;;3.13;1.60;;;23.10;87.30;;;;;;5012804;28;20038;-67
2022/06/03 12:36:47;;;;;;;2.72;1.45;;;23.00;86.90;;;;;;5012669;28;20053;-67
2022/06/03 12:39:39;;;;;;;3.47;1.60;;;22.90;86.90;;;;;;5013404;28;20454;-67
2022/06/03 12:42:28;;;;;;;2.50;1.30;;;22.90;87.60;;;;;;5025865;28;20096;-67
2022/06/03 12:44:56;;;;;;;3.03;1.33;;;22.80;88.10;;;;;;5029494;28;20052;-67
2022/06/03 12:47:31;;;;;;;2.38;1.52;;;22.50;88.40;;;;;;5050226;28;20094;-67
2022/06/03 12:50:28;;;;;;;4.28;1.50;;;22.50;87.90;;;;;;5051667;28;20039;-67
2022/06/03 12:53:31;;;;;;;3.17;1.50;;;22.50;87.40;;;;;;5051415;28;20047;-67
2022/06/03 12:55:59;;;;;;;1.67;1.27;;;22.50;87.10;;;;;;5012642;28;20100;-66
2022/06/03 12:58:42;;;;;;;3.67;1.50;;;22.60;89.20;;;;;;5029067;28;20404;-67
2022/06/03 13:01:09;;;;;;;3.05;1.52;;;22.60;86.70;;;;;;5029040;28;20052;-66
2022/06/03 13:03:35;;;;;;;2.72;1.20;;;22.60;86.80;;;;;;5012608;28;20543;-66
2022/06/03 13:06:03;;;;;;;3.30;1.45;;;22.60;88.00;;;;;;5029164;28;20034;-67
2022/06/03 13:08:28;;;;;;;4.65;1.67;;;22.60;87.50;;;;;;5028992;28;20041;-66
2022/06/03 13:11:30;;;;;;;2.00;1.23;;;22.60;88.70;;;;;;5012238;28;20091;-66
2022/06/03 13:13:56;;;;;;;2.20;1.42;;;22.60;87.70;;;;;;5028536;28;20049;-66
2022/06/03 13:16:46;;;;;;;1.92;0.90;;;22.60;87.70;;;;;;5012376;28;20476;-66
2022/06/03 13:19:14;;;;;;;2.65;1.35;;;22.60;87.00;;;;;;4995777;28;20041;-67
2022/06/03 13:22:09;;;;;;;2.40;1.25;;;22.60;85.60;;;;;;5028665;28;20403;-67
2022/06/03 13:24:39;;;;;;;1.83;1.30;;;22.60;84.80;;;;;;5028797;28;20047;-67
2022/06/03 13:27:29;;;;;;;2.95;1.27;;;22.60;85.30;;;;;;5012158;28;20053;-67
2022/06/03 13:29:56;;;;;;;1.92;1.40;;;22.60;84.70;;;;;;5012029;28;20200;-66
2022/06/03 13:32:46;;;;;;;1.60;1.20;;;22.50;85.30;;;;;;5035918;28;20045;-67
2022/06/03 13:35:22;;;;;;;1.67;1.02;;;22.50;85.80;;;;;;5049536;28;20037;-67
2022/06/03 13:38:11;;;;;;;1.60;1.30;;;22.60;85.40;;;;;;5050547;28;20037;-66
2022/06/03 13:40:37;;;;;;;2.85;1.10;;;22.60;85.70;;;;;;5050221;28;20549;-66
2022/06/03 13:43:13;;;;;;;3.30;1.60;;;22.60;86.90;;;;;;5050541;28;20090;-67
2022/06/03 13:45:49;;;;;;;2.78;1.45;;;22.60;85.60;;;;;;5049337;28;20044;-67
2022/06/03 13:48:32;;;;;;;2.45;1.35;;;22.60;84.40;;;;;;5048433;28;20029;-67
2022/06/03 13:51:21;;;;;;;1.92;1.20;;;22.60;84.80;;;;;;5049168;28;20044;-66
2022/06/03 13:53:53;;;;;;;1.75;1.48;;;22.60;85.50;;;;;;5032200;28;20044;-66
2022/06/03 13:56:23;;;;;;;1.45;1.17;;;22.60;85.20;;;;;;5048828;28;20082;-68
2022/06/03 13:58:49;;;;;;;2.90;1.30;;;22.50;84.10;;;;;;5048867;28;20053;-67
2022/06/03 14:01:24;;;;;;;1.85;1.25;;;22.50;83.60;;;;;;5049085;28;20044;-67
2022/06/03 14:03:56;;;;;;;2.75;1.45;;;22.40;83.50;;;;;;5050004;28;20044;-67
2022/06/03 14:06:27;;;;;;;1.50;1.20;;;22.30;84.20;;;;;;5031893;28;20041;-66
2022/06/03 14:09:06;;;;;;;2.33;1.60;;;22.30;84.20;;;;;;5049962;28;20049;-67
2022/06/03 14:11:41;;;;;;;1.67;1.17;;;22.30;81.90;;;;;;5049003;28;20099;-67
2022/06/03 14:14:18;;;;;;;2.83;1.25;;;22.20;82.80;;;;;;5048884;28;20386;-67
2022/06/03 14:16:52;;;;;;;2.05;1.30;;;22.10;84.00;;;;;;5048777;28;20077;-66
2022/06/03 14:19:19;;;;;;;3.03;1.30;;;22.10;83.40;;;;;;5048393;28;20029;-67
2022/06/03 14:21:49;;;;;;;1.63;1.00;;;22.10;83.80;;;;;;5032138;28;20400;-66
2022/06/03 14:24:41;;;;;;;2.08;1.15;;;22.10;84.60;;;;;;5050167;28;20095;-66
2022/06/03 14:27:29;;;;;;;2.23;1.17;;;22.10;84.10;;;;;;5048708;28;20480;-67
2022/06/03 14:30:10;;;;;;;1.75;1.30;;;22.20;83.70;;;;;;5050467;28;20645;-66